Time;durP1;ratioP1;P1;durP2;ratioP2;P2;SDS_P1;SDS_P2;PMS_P1;PMS_P2;Temp;Humidity;BMP_temperature;BMP_pressure;BME280_temperature;BME280_humidity;BME280_pressure;Samples;Min_cycle;Max_cycle;Signal;HPM_P1;HPM_P2
2022/02/08 00:02:02;;;;;;;11.30;2.03;;;4.90;99.90;;;;;;5051041;28;20470;-60
2022/02/08 00:04:31;;;;;;;11.27;1.90;;;4.80;99.90;;;;;;5050712;28;20227;-60
2022/02/08 00:07:01;;;;;;;10.40;2.30;;;4.90;99.90;;;;;;5050152;28;20485;-60
2022/02/08 00:09:30;;;;;;;7.90;1.70;;;4.80;99.90;;;;;;5054809;28;20487;-60
2022/02/08 00:11:59;;;;;;;9.63;2.10;;;4.80;99.90;;;;;;5038686;28;20954;-60
2022/02/08 00:14:28;;;;;;;8.27;1.77;;;4.80;99.90;;;;;;5046462;28;20834;-60
2022/02/08 00:16:57;;;;;;;7.20;1.43;;;4.80;99.90;;;;;;5050217;28;20831;-60
2022/02/08 00:19:25;;;;;;;11.00;1.93;;;4.70;99.90;;;;;;5050286;28;20462;-60
2022/02/08 00:21:53;;;;;;;5.30;1.47;;;4.70;99.90;;;;;;5050547;28;20246;-60
2022/02/08 00:24:21;;;;;;;7.27;1.57;;;4.70;99.90;;;;;;5050114;28;20577;-61
2022/02/08 00:26:49;;;;;;;8.00;1.90;;;4.70;99.90;;;;;;5049402;28;20326;-61
2022/02/08 00:29:18;;;;;;;5.73;1.80;;;4.70;99.90;;;;;;5050464;28;20471;-60
2022/02/08 00:31:47;;;;;;;9.00;1.60;;;4.80;99.90;;;;;;5050484;28;21680;-60
2022/02/08 00:34:15;;;;;;;7.13;1.93;;;4.80;99.90;;;;;;5050414;28;20470;-60
2022/02/08 00:36:44;;;;;;;6.43;1.80;;;4.80;99.90;;;;;;5050091;28;20474;-60
2022/02/08 00:39:12;;;;;;;11.70;1.87;;;4.90;99.90;;;;;;5050390;28;20462;-60
2022/02/08 00:41:40;;;;;;;9.37;2.20;;;4.80;99.90;;;;;;5050476;28;20561;-61
2022/02/08 00:44:13;;;;;;;8.77;2.17;;;4.90;99.90;;;;;;5050748;28;20235;-60
2022/02/08 00:46:46;;;;;;;8.80;1.90;;;4.90;99.90;;;;;;5050108;28;20470;-61
2022/02/08 00:49:17;;;;;;;6.20;2.03;;;4.80;99.90;;;;;;5048892;28;20965;-60
2022/02/08 00:51:51;;;;;;;8.33;1.67;;;4.90;99.90;;;;;;5048552;28;20989;-60
2022/02/08 00:54:19;;;;;;;7.63;1.60;;;4.90;99.90;;;;;;5053268;28;20484;-60
2022/02/08 00:56:49;;;;;;;8.03;1.83;;;5.00;99.90;;;;;;5031625;28;20470;-60
2022/02/08 00:59:17;;;;;;;12.03;2.40;;;5.00;99.90;;;;;;5060319;28;20897;-60
2022/02/08 01:01:45;;;;;;;10.03;2.20;;;5.00;99.90;;;;;;5050242;28;20493;-61
2022/02/08 01:04:14;;;;;;;8.50;1.97;;;4.90;99.90;;;;;;5048832;28;20259;-60
2022/02/08 01:06:43;;;;;;;6.20;2.07;;;5.00;99.90;;;;;;5050156;28;20488;-60
2022/02/08 01:09:15;;;;;;;9.73;2.03;;;5.00;99.90;;;;;;5050105;28;20634;-60
2022/02/08 01:11:47;;;;;;;10.50;2.20;;;4.90;99.90;;;;;;5048887;28;20301;-60
2022/02/08 01:14:15;;;;;;;8.50;1.80;;;5.00;99.90;;;;;;5050193;28;20919;-61
2022/02/08 01:16:44;;;;;;;9.97;2.10;;;5.00;99.90;;;;;;5050391;28;20505;-60
2022/02/08 01:19:14;;;;;;;8.97;1.93;;;4.90;99.90;;;;;;5050061;28;20480;-61
2022/02/08 01:21:43;;;;;;;11.50;1.97;;;4.90;99.90;;;;;;5053374;28;20293;-60
2022/02/08 01:24:11;;;;;;;7.67;2.17;;;4.90;99.90;;;;;;5053602;28;20557;-60
2022/02/08 01:26:47;;;;;;;11.73;2.63;;;4.90;99.90;;;;;;5034383;28;20476;-61
2022/02/08 01:29:23;;;;;;;11.73;2.77;;;4.90;99.90;;;;;;5049170;28;20323;-60
2022/02/08 01:31:54;;;;;;;9.37;2.53;;;4.90;99.90;;;;;;5069157;28;20477;-60
2022/02/08 01:34:33;;;;;;;9.03;2.47;;;4.90;99.90;;;;;;5053624;28;20531;-60
2022/02/08 01:37:21;;;;;;;13.20;3.13;;;4.90;99.90;;;;;;5052039;28;20516;-60
2022/02/08 01:40:03;;;;;;;12.17;2.57;;;4.90;99.90;;;;;;5037505;28;20560;-60
2022/02/08 01:42:43;;;;;;;8.87;2.80;;;4.90;99.90;;;;;;5031960;28;20477;-60
2022/02/08 01:45:38;;;;;;;7.57;2.50;;;4.90;99.90;;;;;;5035316;28;20484;-61
2022/02/08 01:48:10;;;;;;;12.53;2.97;;;4.90;99.90;;;;;;5052126;28;20960;-60
2022/02/08 01:50:41;;;;;;;14.73;3.63;;;4.90;99.90;;;;;;5051640;28;20246;-61
2022/02/08 01:53:12;;;;;;;11.47;3.20;;;4.90;99.90;;;;;;5051093;28;20232;-61
2022/02/08 01:55:41;;;;;;;8.57;2.90;;;4.90;99.90;;;;;;5051347;28;20492;-61
2022/02/08 01:58:25;;;;;;;13.13;3.33;;;4.90;99.90;;;;;;5051582;28;20477;-60
2022/02/08 02:01:26;;;;;;;8.50;3.43;;;4.90;99.90;;;;;;5046878;28;20486;-60
2022/02/08 02:03:57;;;;;;;12.93;3.33;;;4.90;99.90;;;;;;5044960;28;20478;-61
2022/02/08 02:06:41;;;;;;;11.90;3.93;;;5.00;99.90;;;;;;5028387;28;20641;-60
2022/02/08 02:09:14;;;;;;;11.00;3.80;;;5.00;99.90;;;;;;5028391;28;21058;-60
2022/02/08 02:11:43;;;;;;;10.97;3.90;;;5.00;99.90;;;;;;5005806;28;20492;-61
2022/02/08 02:14:11;;;;;;;12.17;4.37;;;4.90;99.90;;;;;;5014727;28;21018;-60
2022/02/08 02:19:29;;;;;;;13.20;4.87;;;5.00;99.90;;;;;;5044486;28;20526;-61
2022/02/08 02:22:00;;;;;;;14.00;4.60;;;5.00;99.90;;;;;;5050429;28;20232;-60
2022/02/08 02:24:30;;;;;;;16.67;5.53;;;5.00;99.90;;;;;;5052194;28;20508;-60
2022/02/08 02:27:00;;;;;;;13.33;4.93;;;5.00;99.90;;;;;;5051340;28;20497;-60
2022/02/08 02:29:29;;;;;;;18.13;5.73;;;5.10;99.90;;;;;;5050519;28;20478;-60
2022/02/08 02:32:00;;;;;;;10.93;5.80;;;5.10;99.90;;;;;;5051185;28;20228;-61
2022/02/08 02:34:30;;;;;;;15.43;5.77;;;5.10;99.90;;;;;;5050882;28;20281;-61
2022/02/08 02:36:59;;;;;;;17.53;6.37;;;5.10;99.90;;;;;;5050738;28;20236;-60
2022/02/08 02:39:31;;;;;;;15.33;5.80;;;5.10;99.90;;;;;;5050684;28;20475;-60
2022/02/08 02:42:11;;;;;;;17.97;6.77;;;5.20;99.90;;;;;;5051063;28;20467;-60
2022/02/08 02:44:40;;;;;;;15.73;6.63;;;5.20;99.90;;;;;;5032417;28;20236;-60
2022/02/08 02:47:08;;;;;;;19.03;7.37;;;5.20;99.90;;;;;;5035466;28;20477;-60
2022/02/08 02:49:36;;;;;;;11.97;6.57;;;5.20;99.90;;;;;;5050475;28;20313;-60
2022/02/08 02:52:08;;;;;;;22.93;6.77;;;5.20;99.90;;;;;;5050878;28;20482;-60
2022/02/08 02:54:42;;;;;;;15.67;7.23;;;5.30;99.90;;;;;;5047507;28;20320;-61
2022/02/08 02:57:15;;;;;;;18.23;7.53;;;5.30;99.90;;;;;;5050424;28;20646;-60
2022/02/08 02:59:47;;;;;;;19.27;7.63;;;5.30;99.90;;;;;;5050583;28;20815;-60
2022/02/08 03:02:30;;;;;;;18.10;8.17;;;5.30;99.90;;;;;;5050577;28;20242;-61
2022/02/08 03:05:08;;;;;;;20.27;7.77;;;5.30;99.90;;;;;;5047118;28;20537;-60
2022/02/08 03:18:43;;;;;;;20.87;8.60;;;5.50;99.90;;;;;;5029550;28;20292;-60
2022/02/08 03:21:12;;;;;;;19.33;8.03;;;5.40;99.90;;;;;;5031734;28;20240;-60
2022/02/08 03:23:41;;;;;;;22.57;9.00;;;5.40;99.90;;;;;;5046628;28;20719;-60
2022/02/08 03:26:12;;;;;;;15.30;7.40;;;5.50;99.90;;;;;;5049657;28;20262;-60
2022/02/08 03:28:47;;;;;;;17.17;8.23;;;5.50;99.90;;;;;;5049900;28;20496;-60
2022/02/08 03:31:23;;;;;;;19.20;8.83;;;5.50;99.90;;;;;;5066373;28;20239;-60
2022/02/08 03:33:51;;;;;;;20.63;8.87;;;5.50;99.90;;;;;;5066767;28;20337;-61
2022/02/08 03:36:20;;;;;;;20.73;8.87;;;5.50;99.90;;;;;;5039094;28;20271;-61
2022/02/08 03:39:04;;;;;;;22.20;9.40;;;5.50;99.90;;;;;;5030078;28;20463;-60
2022/02/08 03:41:41;;;;;;;14.07;8.40;;;5.50;99.90;;;;;;5029115;28;20293;-60
2022/02/08 03:44:18;;;;;;;19.57;9.67;;;5.60;99.90;;;;;;5035530;28;20634;-60
2022/02/08 03:46:51;;;;;;;14.90;8.67;;;5.60;99.90;;;;;;5050180;28;20251;-60
2022/02/08 03:49:20;;;;;;;21.70;10.33;;;5.60;99.90;;;;;;5048237;28;20260;-61
2022/02/08 03:51:51;;;;;;;22.60;10.10;;;5.70;99.90;;;;;;5051346;28;20737;-60
2022/02/08 03:54:20;;;;;;;20.37;10.37;;;5.60;99.90;;;;;;5041353;28;20247;-60
2022/02/08 03:56:51;;;;;;;19.50;10.57;;;5.60;99.90;;;;;;5049775;28;20266;-61
2022/02/08 03:59:19;;;;;;;19.40;11.97;;;5.60;99.90;;;;;;5051296;28;20285;-60
2022/02/08 04:04:47;;;;;;;21.60;11.90;;;5.60;99.90;;;;;;5025899;28;20486;-60
2022/02/08 04:07:20;;;;;;;16.37;10.73;;;5.70;99.90;;;;;;5038874;28;20313;-61
2022/02/08 04:09:58;;;;;;;24.50;11.73;;;5.70;99.90;;;;;;5035114;28;20479;-60
2022/02/08 04:12:37;;;;;;;21.40;11.90;;;5.70;99.90;;;;;;5037125;28;20242;-61
2022/02/08 04:15:24;;;;;;;24.43;12.37;;;5.80;99.90;;;;;;5039650;28;20490;-61
2022/02/08 04:32:14;;;;;;;23.83;13.47;;;5.90;99.90;;;;;;5067611;28;20242;-62
2022/02/08 04:35:01;;;;;;;26.13;13.93;;;5.90;99.90;;;;;;5047638;28;20239;-61
2022/02/08 04:43:24;;;;;;;27.00;13.87;;;5.90;99.90;;;;;;5067456;28;20476;-61
2022/02/08 04:45:57;;;;;;;22.40;14.20;;;6.00;99.90;;;;;;5067462;28;20226;-62
2022/02/08 04:48:41;;;;;;;22.83;13.60;;;6.00;99.90;;;;;;5066853;28;20721;-62
2022/02/08 04:51:16;;;;;;;22.33;14.00;;;6.10;99.90;;;;;;5067361;28;20242;-62
2022/02/08 04:53:52;;;;;;;26.10;15.03;;;6.10;99.90;;;;;;5067087;28;20246;-62
2022/02/08 04:56:30;;;;;;;23.40;14.63;;;6.10;99.90;;;;;;5066685;28;20242;-62
2022/02/08 04:59:12;;;;;;;22.67;14.73;;;6.10;99.90;;;;;;5067200;28;20242;-61
2022/02/08 05:01:55;;;;;;;23.03;14.93;;;6.20;99.90;;;;;;5070678;28;20479;-62
2022/02/08 05:26:55;;;;;;;21.50;15.10;;;6.40;99.90;;;;;;5066354;28;20239;-62
2022/02/08 05:30:01;;;;;;;19.50;14.43;;;6.40;99.90;;;;;;5066127;28;20344;-62
2022/02/08 05:35:26;;;;;;;22.17;15.37;;;6.50;99.90;;;;;;5053151;28;20258;-62
2022/02/08 05:44:01;;;;;;;29.90;16.37;;;6.50;99.90;;;;;;5052652;28;20239;-62
2022/02/08 05:49:29;;;;;;;25.70;15.43;;;6.70;99.90;;;;;;5042518;28;20235;-62
2022/02/08 05:54:41;;;;;;;30.10;17.40;;;6.70;99.90;;;;;;5032692;28;20700;-62
2022/02/08 05:57:10;;;;;;;27.47;17.43;;;6.70;99.90;;;;;;5053788;28;20231;-62
2022/02/08 05:59:40;;;;;;;31.67;18.13;;;6.70;99.90;;;;;;5067181;28;20699;-62
2022/02/08 06:02:08;;;;;;;29.87;17.83;;;6.80;99.90;;;;;;5069800;28;20296;-62
2022/02/08 06:04:51;;;;;;;31.47;18.73;;;6.70;99.90;;;;;;5052509;28;20592;-62
2022/02/08 06:07:22;;;;;;;28.23;17.30;;;6.70;99.90;;;;;;5051314;28;20285;-61
2022/02/08 06:09:54;;;;;;;30.03;17.67;;;6.80;99.90;;;;;;5058521;28;20232;-62
2022/02/08 06:12:25;;;;;;;30.03;18.80;;;6.90;99.90;;;;;;5056139;28;20228;-62
2022/02/08 06:15:07;;;;;;;30.07;17.47;;;6.90;99.90;;;;;;5052366;28;20308;-61
2022/02/08 06:17:37;;;;;;;36.67;19.47;;;6.80;99.90;;;;;;5050716;28;20247;-62
2022/02/08 06:20:06;;;;;;;29.17;18.13;;;6.90;99.90;;;;;;5054590;28;20232;-62
2022/02/08 06:22:35;;;;;;;29.73;18.27;;;6.90;99.90;;;;;;5051906;28;20240;-62
2022/02/08 06:25:04;;;;;;;31.20;18.67;;;6.90;99.90;;;;;;5051774;28;20250;-62
2022/02/08 06:27:33;;;;;;;28.73;18.23;;;7.00;99.90;;;;;;5052506;28;20255;-62
2022/02/08 06:30:02;;;;;;;33.90;18.87;;;7.00;99.90;;;;;;5069253;28;20235;-61
2022/02/08 06:32:32;;;;;;;31.33;18.77;;;7.00;99.90;;;;;;5069549;28;20321;-62
2022/02/08 06:35:04;;;;;;;34.50;18.47;;;7.10;99.90;;;;;;5051906;28;20236;-62
2022/02/08 06:37:35;;;;;;;33.47;17.93;;;7.00;99.90;;;;;;5051816;28;20650;-62
2022/02/08 06:40:04;;;;;;;34.87;18.57;;;7.10;99.90;;;;;;5050542;28;20323;-62
2022/02/08 06:42:32;;;;;;;32.53;18.80;;;7.20;99.90;;;;;;5050794;28;20244;-62
2022/02/08 06:45:03;;;;;;;39.53;19.73;;;7.20;99.90;;;;;;5052068;28;20243;-62
2022/02/08 06:47:32;;;;;;;32.33;18.70;;;7.20;99.90;;;;;;5050245;28;20802;-62
2022/02/08 06:50:07;;;;;;;33.37;20.03;;;7.20;99.90;;;;;;5040253;28;20243;-62
2022/02/08 06:52:35;;;;;;;32.63;19.40;;;7.20;99.90;;;;;;5046969;28;20238;-62
2022/02/08 06:55:05;;;;;;;29.27;19.20;;;7.20;99.90;;;;;;5048842;28;20228;-62
2022/02/08 06:57:47;;;;;;;30.13;19.93;;;7.20;99.90;;;;;;5050405;28;20765;-62
2022/02/08 07:00:21;;;;;;;33.43;19.60;;;7.20;99.90;;;;;;5047232;28;20629;-62
2022/02/08 07:02:50;;;;;;;31.90;18.00;;;7.20;99.90;;;;;;5050331;28;20699;-62
2022/02/08 07:05:19;;;;;;;33.20;19.03;;;7.20;99.90;;;;;;5050803;28;20243;-62
2022/02/08 07:07:47;;;;;;;30.00;19.00;;;7.20;99.90;;;;;;5045742;28;20262;-62
2022/02/08 07:10:15;;;;;;;27.03;17.30;;;7.30;99.90;;;;;;5045164;28;20223;-62
2022/02/08 07:12:44;;;;;;;31.57;18.23;;;7.30;99.90;;;;;;5047207;28;20692;-62
2022/02/08 07:15:14;;;;;;;29.57;18.57;;;7.30;99.90;;;;;;5047658;28;20228;-62
2022/02/08 07:17:43;;;;;;;31.33;19.30;;;7.30;99.90;;;;;;5049779;28;20255;-62
2022/02/08 07:20:13;;;;;;;31.23;18.60;;;7.30;99.90;;;;;;5045349;28;20237;-62
2022/02/08 07:22:42;;;;;;;30.57;18.50;;;7.30;99.90;;;;;;5050368;28;20324;-62
2022/02/08 07:25:11;;;;;;;32.60;18.80;;;7.30;99.90;;;;;;5050478;28;20243;-62
2022/02/08 07:27:40;;;;;;;29.40;18.23;;;7.30;99.90;;;;;;5050694;28;20236;-62
2022/02/08 07:30:11;;;;;;;32.53;18.70;;;7.30;99.90;;;;;;5050335;28;20243;-62
2022/02/08 07:32:41;;;;;;;30.33;18.57;;;7.40;99.90;;;;;;5034704;28;24240;-62
2022/02/08 07:35:27;;;;;;;28.57;17.60;;;7.40;99.90;;;;;;5046204;28;20627;-62
2022/02/08 07:38:03;;;;;;;27.97;16.97;;;7.40;99.90;;;;;;5039955;28;20359;-62
2022/02/08 07:41:35;;;;;;;30.77;17.87;;;7.40;99.90;;;;;;5036716;28;20319;-62
2022/02/08 07:43:30;;;;;;;33.00;16.90;;;7.40;99.90;;;;;;5039802;28;20692;-62
2022/02/08 07:46:08;;;;;;;27.43;16.27;;;7.40;99.90;;;;;;5043173;28;20330;-62
2022/02/08 07:48:36;;;;;;;29.90;17.47;;;7.50;99.90;;;;;;5045879;28;20667;-62
2022/02/08 07:51:08;;;;;;;26.60;16.43;;;7.50;99.90;;;;;;5044918;28;20232;-62
2022/02/08 07:53:36;;;;;;;25.80;16.47;;;7.60;99.90;;;;;;5048309;28;20235;-62
2022/02/08 07:56:05;;;;;;;26.73;15.97;;;7.60;99.90;;;;;;5048833;28;20228;-62
2022/02/08 07:58:33;;;;;;;29.77;15.90;;;7.60;99.90;;;;;;5036239;28;20255;-61
2022/02/08 08:01:07;;;;;;;28.43;16.37;;;7.60;99.90;;;;;;5050078;28;20565;-62
2022/02/08 08:03:41;;;;;;;28.47;16.43;;;7.60;99.90;;;;;;5049966;28;20258;-62
2022/02/08 08:06:13;;;;;;;25.53;15.87;;;7.70;99.90;;;;;;5046785;28;20316;-62
2022/02/08 08:08:41;;;;;;;27.37;16.13;;;7.70;99.90;;;;;;5038718;28;20577;-62
2022/02/08 08:11:14;;;;;;;23.80;14.37;;;7.70;99.90;;;;;;5030673;28;20236;-62
2022/02/08 08:13:48;;;;;;;29.50;15.10;;;7.70;99.90;;;;;;5038769;28;20645;-62
2022/02/08 08:16:23;;;;;;;24.83;14.60;;;7.70;99.90;;;;;;5036105;28;20230;-62
2022/02/08 08:19:04;;;;;;;25.87;12.97;;;7.70;99.90;;;;;;5038953;28;20293;-62
2022/02/08 08:21:33;;;;;;;20.07;12.87;;;7.80;99.90;;;;;;5044524;28;20239;-62
2022/02/08 08:24:03;;;;;;;19.50;12.47;;;7.80;99.90;;;;;;5047207;28;20337;-62
2022/02/08 08:26:31;;;;;;;23.50;12.97;;;7.80;99.90;;;;;;5045152;28;20240;-62
2022/02/08 08:29:00;;;;;;;17.43;12.10;;;7.80;99.90;;;;;;5039805;28;20596;-62
2022/02/08 08:31:28;;;;;;;21.33;11.67;;;7.90;99.90;;;;;;5030103;28;20237;-61
2022/02/08 08:34:13;;;;;;;20.47;12.20;;;7.90;99.90;;;;;;5042977;28;20281;-62
2022/02/08 08:36:46;;;;;;;19.27;11.37;;;7.90;99.90;;;;;;5035839;28;20248;-60
2022/02/08 08:39:14;;;;;;;21.37;11.47;;;7.90;99.90;;;;;;5039788;28;20264;-62
2022/02/08 08:41:48;;;;;;;20.73;10.93;;;7.90;99.90;;;;;;5030259;28;20234;-62
2022/02/08 08:44:49;;;;;;;22.93;10.00;;;8.00;99.90;;;;;;5045175;28;20245;-62
2022/02/08 08:50:07;;;;;;;18.60;9.10;;;8.00;99.90;;;;;;5045089;28;20322;-62
2022/02/08 08:52:41;;;;;;;18.53;9.27;;;8.10;99.90;;;;;;5045117;28;20370;-62
2022/02/08 08:55:11;;;;;;;17.73;8.40;;;8.10;99.90;;;;;;5044410;28;20258;-60
2022/02/08 08:57:39;;;;;;;14.60;8.30;;;8.10;99.90;;;;;;5044585;28;20236;-60
2022/02/08 09:00:10;;;;;;;16.70;8.53;;;8.10;99.90;;;;;;5045471;28;20325;-60
2022/02/08 09:02:39;;;;;;;16.77;8.67;;;8.10;99.90;;;;;;5045459;28;20281;-60
2022/02/08 09:05:12;;;;;;;14.17;7.80;;;8.20;99.90;;;;;;5043882;28;20244;-60
2022/02/08 09:07:43;;;;;;;14.90;8.27;;;8.20;99.90;;;;;;5049004;28;20335;-60
2022/02/08 09:10:15;;;;;;;20.27;8.07;;;8.20;99.90;;;;;;5048795;28;20228;-59
2022/02/08 09:13:03;;;;;;;12.73;7.30;;;8.20;99.90;;;;;;5048377;28;20793;-59
2022/02/08 09:15:48;;;;;;;13.57;7.53;;;8.30;99.90;;;;;;5047826;28;20350;-60
2022/02/08 09:18:40;;;;;;;13.37;6.67;;;8.20;99.90;;;;;;5049104;28;20239;-59
2022/02/08 09:29:42;;;;;;;16.37;7.57;;;8.40;99.90;;;;;;5033967;28;20251;-60
2022/02/08 09:32:19;;;;;;;17.10;6.77;;;8.40;99.90;;;;;;5048765;28;20322;-60
2022/02/08 09:34:48;;;;;;;16.37;7.17;;;8.40;99.90;;;;;;5047369;28;20243;-60
2022/02/08 09:37:18;;;;;;;14.73;6.43;;;8.40;99.90;;;;;;5048445;28;20244;-60
2022/02/08 09:39:51;;;;;;;14.20;6.50;;;8.40;99.90;;;;;;5048474;28;20244;-60
2022/02/08 09:42:20;;;;;;;14.17;7.03;;;8.40;99.90;;;;;;5048534;28;20315;-60
2022/02/08 09:44:48;;;;;;;14.37;6.30;;;8.40;99.90;;;;;;5046702;28;20231;-60
2022/02/08 09:47:28;;;;;;;19.30;7.10;;;8.40;99.90;;;;;;5048395;28;20235;-59
2022/02/08 09:50:03;;;;;;;14.90;6.43;;;8.40;99.90;;;;;;5048546;28;21097;-60
2022/02/08 09:52:32;;;;;;;13.63;5.90;;;8.50;99.90;;;;;;5048203;28;20243;-60
2022/02/08 09:55:01;;;;;;;12.13;5.47;;;8.50;99.90;;;;;;5047167;28;20236;-60
2022/02/08 09:57:30;;;;;;;17.27;5.60;;;8.40;99.90;;;;;;5048107;28;20581;-60
2022/02/08 09:59:58;;;;;;;12.10;5.40;;;8.40;99.90;;;;;;5048169;28;20236;-60
2022/02/08 10:02:27;;;;;;;12.73;5.27;;;8.40;99.90;;;;;;5047964;28;20244;-60
2022/02/08 10:04:59;;;;;;;12.87;5.07;;;8.40;99.90;;;;;;5046732;28;20244;-60
2022/02/08 10:07:28;;;;;;;12.67;5.10;;;8.40;99.90;;;;;;5048084;28;20243;-60
2022/02/08 10:09:56;;;;;;;15.13;5.60;;;8.40;99.90;;;;;;5048174;28;20243;-60
2022/02/08 10:12:31;;;;;;;13.23;4.93;;;8.40;99.90;;;;;;5047967;28;20251;-60
2022/02/08 10:23:29;;;;;;;14.90;4.97;;;8.50;99.90;;;;;;5000841;28;20464;-60
2022/02/08 10:26:07;;;;;;;11.73;4.70;;;8.50;99.90;;;;;;5046677;28;20232;-60
2022/02/08 10:28:53;;;;;;;15.90;4.63;;;8.50;99.90;;;;;;5047535;28;20244;-60
2022/02/08 10:31:33;;;;;;;10.80;4.70;;;8.40;99.90;;;;;;5047317;28;20323;-60
2022/02/08 10:39:59;;;;;;;16.33;4.83;;;8.60;99.90;;;;;;5047290;28;20655;-60
2022/02/08 10:42:29;;;;;;;17.93;4.67;;;8.50;99.90;;;;;;5046920;28;20290;-60
2022/02/08 10:44:59;;;;;;;13.87;4.20;;;8.50;99.90;;;;;;5046115;28;20685;-60
2022/02/08 10:47:35;;;;;;;10.33;4.00;;;8.50;99.90;;;;;;5046846;28;20248;-60
2022/02/08 10:50:06;;;;;;;15.33;4.50;;;8.50;99.90;;;;;;5046846;28;20247;-60
2022/02/08 10:52:35;;;;;;;9.50;3.90;;;8.60;99.90;;;;;;5046366;28;20250;-60
2022/02/08 10:55:13;;;;;;;17.20;3.83;;;8.50;99.90;;;;;;5045788;28;20727;-60
2022/02/08 10:57:56;;;;;;;12.70;3.90;;;8.50;99.90;;;;;;5046966;28;20687;-60
2022/02/08 11:00:32;;;;;;;11.20;4.07;;;8.60;99.90;;;;;;5046255;28;20271;-60
2022/02/08 11:03:04;;;;;;;11.50;3.90;;;8.60;99.90;;;;;;5046929;28;20243;-60
2022/02/08 11:05:45;;;;;;;14.23;4.10;;;8.60;99.90;;;;;;5045493;28;20247;-60
2022/02/08 11:11:11;;;;;;;13.77;4.20;;;8.60;99.90;;;;;;5046362;28;20243;-60
2022/02/08 11:13:56;;;;;;;13.07;4.00;;;8.50;99.90;;;;;;5046453;28;20637;-60
2022/02/08 11:16:42;;;;;;;13.60;4.30;;;8.60;99.90;;;;;;5045008;28;20327;-60
2022/02/08 11:19:26;;;;;;;10.77;3.80;;;8.50;99.90;;;;;;5046336;28;20267;-60
2022/02/08 11:22:05;;;;;;;12.00;3.47;;;8.50;99.90;;;;;;5046489;28;20243;-61
2022/02/08 11:24:41;;;;;;;16.97;3.83;;;8.50;99.90;;;;;;5044495;28;20235;-61
2022/02/08 11:27:15;;;;;;;12.20;3.87;;;8.50;99.90;;;;;;5047008;28;20236;-62
2022/02/08 11:29:51;;;;;;;14.23;3.60;;;8.60;99.90;;;;;;5044517;28;20263;-63
2022/02/08 11:32:31;;;;;;;16.33;4.03;;;8.60;99.90;;;;;;5047010;28;20240;-63
2022/02/08 11:44:09;;;;;;;10.53;4.03;;;8.60;99.90;;;;;;5048663;28;20263;-62
2022/02/08 11:46:54;;;;;;;13.60;3.40;;;8.60;99.90;;;;;;5050789;28;20322;-63
2022/02/08 11:49:43;;;;;;;13.13;3.17;;;8.60;99.90;;;;;;5050491;28;20327;-63
2022/02/08 11:52:26;;;;;;;13.67;3.40;;;8.60;99.90;;;;;;5051034;28;20255;-61
2022/02/08 11:58:06;;;;;;;10.27;3.90;;;8.60;99.90;;;;;;5062274;28;20263;-63
2022/02/08 12:00:38;;;;;;;14.23;4.00;;;8.70;99.90;;;;;;5050771;28;20289;-63
2022/02/08 12:06:27;;;;;;;14.93;3.67;;;8.70;99.90;;;;;;5045571;28;20239;-63
2022/02/08 12:08:59;;;;;;;14.83;4.10;;;8.70;99.90;;;;;;5050580;28;20294;-63
2022/02/08 12:11:54;;;;;;;14.27;3.70;;;8.70;99.90;;;;;;5050553;28;20231;-63
2022/02/08 12:35:20;;;;;;;12.90;3.70;;;8.60;99.90;;;;;;5005949;28;20322;-63
2022/02/08 12:54:56;;;;;;;8.90;3.77;;;8.60;99.90;;;;;;5034729;28;20255;-61
2022/02/08 12:57:35;;;;;;;8.73;3.43;;;8.60;99.90;;;;;;5035207;28;20244;-61
2022/02/08 13:00:22;;;;;;;10.10;3.40;;;8.60;99.90;;;;;;5056782;28;20227;-61
2022/02/08 13:03:19;;;;;;;6.87;3.20;;;8.70;99.90;;;;;;5059122;28;20716;-60
2022/02/08 13:24:43;;;;;;;6.57;3.50;;;8.70;99.90;;;;;;5063373;28;20289;-60
2022/02/08 14:02:44;;;;;;;3.63;2.53;;;8.90;99.90;;;;;;5055726;28;20757;-61
2022/02/08 14:08:17;;;;;;;3.83;2.27;;;8.90;99.90;;;;;;5047323;28;20235;-61
2022/02/08 14:11:08;;;;;;;4.57;2.30;;;8.90;99.90;;;;;;5059168;28;20715;-60
2022/02/08 14:16:34;;;;;;;4.17;2.00;;;9.00;99.90;;;;;;5064225;28;20243;-60
2022/02/08 14:19:23;;;;;;;3.97;2.00;;;8.90;99.90;;;;;;5066322;28;20300;-60
2022/02/08 14:21:58;;;;;;;5.03;2.20;;;9.00;99.90;;;;;;5070478;28;20234;-61
2022/02/08 14:24:45;;;;;;;3.70;2.23;;;9.00;99.90;;;;;;5052248;28;20247;-60
2022/02/08 14:30:15;;;;;;;2.63;1.80;;;9.00;99.90;;;;;;5061223;28;20235;-60
2022/02/08 14:32:51;;;;;;;5.70;2.13;;;9.00;99.90;;;;;;5058353;28;20239;-61
2022/02/08 14:49:30;;;;;;;4.57;2.40;;;8.90;99.90;;;;;;5045606;28;20227;-60
2022/02/08 14:58:05;;;;;;;4.57;2.63;;;8.90;99.90;;;;;;5007737;28;20256;-60
2022/02/08 15:06:13;;;;;;;2.17;1.97;;;8.90;99.90;;;;;;5046008;28;20699;-61
2022/02/08 15:08:41;;;;;;;2.70;2.27;;;8.90;99.90;;;;;;5046644;28;21313;-61
2022/02/08 15:11:12;;;;;;;2.13;1.87;;;8.90;99.90;;;;;;5046355;28;20243;-61
2022/02/08 15:13:46;;;;;;;4.30;2.00;;;8.90;99.90;;;;;;5046116;28;20331;-60
2022/02/08 15:16:25;;;;;;;2.40;1.73;;;8.90;99.90;;;;;;5045803;28;20236;-60
2022/02/08 15:18:55;;;;;;;3.53;2.10;;;8.90;99.90;;;;;;5046553;28;20278;-60
2022/02/08 15:21:29;;;;;;;3.03;2.30;;;8.90;99.90;;;;;;5046736;28;20242;-61
2022/02/08 15:23:58;;;;;;;3.20;1.80;;;8.90;99.90;;;;;;5045724;28;20723;-60
2022/02/08 15:26:28;;;;;;;2.30;2.10;;;8.90;99.90;;;;;;5045469;28;20239;-60
2022/02/08 15:29:01;;;;;;;2.03;1.93;;;8.90;99.90;;;;;;5046563;28;20330;-60
2022/02/08 15:31:29;;;;;;;2.73;2.40;;;8.90;99.90;;;;;;5046125;28;20282;-60
2022/02/08 15:33:59;;;;;;;3.30;3.00;;;8.80;99.90;;;;;;5045767;28;20743;-60
2022/02/08 15:36:30;;;;;;;3.43;3.13;;;8.90;99.90;;;;;;5045248;28;20772;-59
2022/02/08 15:39:06;;;;;;;3.93;3.40;;;8.90;99.90;;;;;;5045548;28;20243;-60
2022/02/08 15:41:38;;;;;;;3.67;3.37;;;8.90;99.90;;;;;;5046325;28;20267;-61
2022/02/08 15:44:08;;;;;;;4.13;3.73;;;8.80;99.90;;;;;;5045770;28;20256;-60
2022/02/08 15:46:37;;;;;;;4.87;4.17;;;8.80;99.90;;;;;;5044729;28;20247;-60
2022/02/08 15:49:05;;;;;;;5.40;4.63;;;8.80;99.90;;;;;;5045196;28;20335;-61
2022/02/08 15:51:38;;;;;;;5.63;4.30;;;8.80;99.90;;;;;;5045714;28;20235;-61
2022/02/08 15:54:20;;;;;;;5.10;4.60;;;8.80;99.90;;;;;;5045138;28;20244;-60
2022/02/08 16:08:08;;;;;;;3.93;3.40;;;8.80;99.90;;;;;;5045908;28;20301;-61
2022/02/08 16:10:48;;;;;;;3.77;3.47;;;8.80;99.90;;;;;;5044691;28;20799;-60
2022/02/08 16:13:28;;;;;;;2.97;2.67;;;8.70;99.90;;;;;;5043558;28;20309;-61
2022/02/08 16:16:15;;;;;;;5.33;4.17;;;8.70;99.90;;;;;;5043764;28;20267;-60
2022/02/08 16:18:50;;;;;;;6.23;5.63;;;8.70;99.90;;;;;;5045052;28;20275;-61
2022/02/08 16:21:40;;;;;;;3.80;3.43;;;8.70;99.90;;;;;;5045292;28;20674;-61
2022/02/08 16:24:27;;;;;;;3.47;3.13;;;8.70;99.90;;;;;;5044901;28;20240;-60
2022/02/08 16:30:17;;;;;;;2.90;2.60;;;8.70;99.90;;;;;;5045204;28;20607;-60
2022/02/08 16:33:02;;;;;;;3.53;2.60;;;8.70;99.90;;;;;;5044609;28;20251;-60
2022/02/08 16:47:30;;;;;;;3.07;2.57;;;8.60;99.90;;;;;;5043630;28;20326;-60
2022/02/08 16:50:03;;;;;;;4.03;2.83;;;8.60;99.90;;;;;;5044515;28;20239;-60
2022/02/08 16:55:44;;;;;;;4.33;3.33;;;8.60;99.90;;;;;;5033819;28;20248;-60
2022/02/08 16:58:24;;;;;;;4.23;3.83;;;8.70;99.90;;;;;;5045296;28;20263;-60
2022/02/08 17:00:56;;;;;;;5.33;4.60;;;8.60;99.90;;;;;;5045605;28;20267;-60
2022/02/08 17:03:44;;;;;;;5.90;4.80;;;8.60;99.90;;;;;;5044931;28;20243;-61
2022/02/08 17:06:13;;;;;;;5.20;4.50;;;8.70;99.90;;;;;;5043604;28;20365;-60
2022/02/08 17:08:41;;;;;;;4.70;4.23;;;8.60;99.90;;;;;;5044432;28;20724;-60
2022/02/08 17:11:10;;;;;;;5.37;4.47;;;8.60;99.90;;;;;;5045363;28;20243;-60
2022/02/08 17:14:02;;;;;;;4.60;4.20;;;8.60;99.90;;;;;;5043915;28;20240;-60
2022/02/08 17:16:37;;;;;;;6.13;4.57;;;8.60;99.90;;;;;;5041892;28;20330;-61
2022/02/08 17:19:33;;;;;;;4.87;3.87;;;8.70;99.90;;;;;;5042353;28;20622;-60
2022/02/08 17:47:14;;;;;;;5.10;4.60;;;8.60;99.90;;;;;;5044341;28;20703;-60
2022/02/08 17:49:42;;;;;;;5.27;4.73;;;8.60;99.90;;;;;;5045732;28;20236;-61
2022/02/08 17:52:12;;;;;;;5.37;4.87;;;8.60;99.90;;;;;;5045315;28;20251;-61
2022/02/08 17:54:40;;;;;;;5.83;5.23;;;8.60;99.90;;;;;;5045082;28;20236;-59
2022/02/08 17:57:08;;;;;;;5.77;5.17;;;8.60;99.90;;;;;;5044819;28;20246;-61
2022/02/08 17:59:36;;;;;;;7.20;4.93;;;8.60;99.90;;;;;;5045623;28;20809;-60
2022/02/08 18:02:06;;;;;;;6.27;5.20;;;8.60;99.90;;;;;;5045281;28;20235;-61
2022/02/08 18:04:34;;;;;;;7.30;5.57;;;8.60;99.90;;;;;;5044656;28;20282;-61
2022/02/08 18:07:02;;;;;;;6.23;5.27;;;8.60;99.90;;;;;;5044583;28;20258;-60
2022/02/08 18:09:32;;;;;;;7.17;5.67;;;8.60;99.90;;;;;;5044717;28;20375;-60
2022/02/08 18:12:01;;;;;;;7.13;5.33;;;8.60;99.90;;;;;;5045482;28;20240;-61
2022/02/08 18:14:29;;;;;;;6.10;5.50;;;8.60;99.90;;;;;;5044715;28;20337;-60
2022/02/08 18:17:08;;;;;;;6.73;5.70;;;8.60;99.90;;;;;;5044822;28;20239;-60
2022/02/08 18:19:40;;;;;;;8.03;6.30;;;8.60;99.90;;;;;;5044996;28;20236;-60
2022/02/08 18:22:25;;;;;;;6.90;5.63;;;8.60;99.90;;;;;;5045834;28;20358;-60